sensor_id;sensor_type;location;lat;lon;timestamp;P1;durP1;ratioP1;P2;durP2;ratioP2
50683;SDS011;36654;45.042;38.994;2022-08-19T00:01:41;12.40;;;8.63;;
50683;SDS011;36654;45.042;38.994;2022-08-19T00:04:10;13.38;;;9.20;;
50683;SDS011;36654;45.042;38.994;2022-08-19T00:06:37;12.07;;;8.77;;
50683;SDS011;36654;45.042;38.994;2022-08-19T00:09:05;13.05;;;8.82;;
50683;SDS011;36654;45.042;38.994;2022-08-19T00:11:32;12.40;;;8.75;;
50683;SDS011;36654;45.042;38.994;2022-08-19T00:13:59;13.52;;;9.10;;
50683;SDS011;36654;45.042;38.994;2022-08-19T00:16:25;12.32;;;8.60;;
50683;SDS011;36654;45.042;38.994;2022-08-19T00:18:51;14.15;;;8.93;;
50683;SDS011;36654;45.042;38.994;2022-08-19T00:21:17;14.68;;;9.00;;
50683;SDS011;36654;45.042;38.994;2022-08-19T00:23:43;13.50;;;9.10;;
50683;SDS011;36654;45.042;38.994;2022-08-19T00:26:09;11.75;;;9.77;;
50683;SDS011;36654;45.042;38.994;2022-08-19T00:28:35;13.40;;;9.32;;
50683;SDS011;36654;45.042;38.994;2022-08-19T00:31:02;11.68;;;9.07;;
50683;SDS011;36654;45.042;38.994;2022-08-19T00:33:29;12.40;;;9.10;;
50683;SDS011;36654;45.042;38.994;2022-08-19T00:36:02;12.15;;;8.90;;
50683;SDS011;36654;45.042;38.994;2022-08-19T00:38:31;12.70;;;9.65;;
50683;SDS011;36654;45.042;38.994;2022-08-19T00:40:58;10.85;;;8.52;;
50683;SDS011;36654;45.042;38.994;2022-08-19T00:43:24;13.23;;;9.10;;
50683;SDS011;36654;45.042;38.994;2022-08-19T00:45:52;14.82;;;9.48;;
50683;SDS011;36654;45.042;38.994;2022-08-19T00:48:18;11.07;;;8.95;;
50683;SDS011;36654;45.042;38.994;2022-08-19T00:50:46;14.10;;;9.60;;
50683;SDS011;36654;45.042;38.994;2022-08-19T00:53:14;12.80;;;9.38;;
50683;SDS011;36654;45.042;38.994;2022-08-19T00:55:45;15.45;;;9.20;;
50683;SDS011;36654;45.042;38.994;2022-08-19T00:58:14;13.93;;;9.57;;
50683;SDS011;36654;45.042;38.994;2022-08-19T01:00:44;13.65;;;9.02;;
50683;SDS011;36654;45.042;38.994;2022-08-19T01:03:12;12.82;;;9.30;;
50683;SDS011;36654;45.042;38.994;2022-08-19T01:05:41;12.15;;;8.73;;
50683;SDS011;36654;45.042;38.994;2022-08-19T01:08:08;13.07;;;9.80;;
50683;SDS011;36654;45.042;38.994;2022-08-19T01:10:39;15.05;;;9.73;;
50683;SDS011;36654;45.042;38.994;2022-08-19T01:13:08;13.43;;;10.23;;
50683;SDS011;36654;45.042;38.994;2022-08-19T01:15:40;14.85;;;9.55;;
50683;SDS011;36654;45.042;38.994;2022-08-19T01:18:12;13.60;;;9.65;;
50683;SDS011;36654;45.042;38.994;2022-08-19T01:20:41;14.13;;;9.70;;
50683;SDS011;36654;45.042;38.994;2022-08-19T01:23:07;15.23;;;9.80;;
50683;SDS011;36654;45.042;38.994;2022-08-19T01:25:39;15.52;;;9.55;;
50683;SDS011;36654;45.042;38.994;2022-08-19T01:28:19;12.07;;;9.75;;
50683;SDS011;36654;45.042;38.994;2022-08-19T01:30:50;15.35;;;10.13;;
50683;SDS011;36654;45.042;38.994;2022-08-19T01:33:17;14.20;;;10.32;;
50683;SDS011;36654;45.042;38.994;2022-08-19T01:35:44;13.20;;;9.70;;
50683;SDS011;36654;45.042;38.994;2022-08-19T01:38:18;16.05;;;10.05;;
50683;SDS011;36654;45.042;38.994;2022-08-19T01:40:49;16.25;;;11.38;;
50683;SDS011;36654;45.042;38.994;2022-08-19T01:43:15;13.85;;;10.18;;
50683;SDS011;36654;45.042;38.994;2022-08-19T01:45:41;13.52;;;10.60;;
50683;SDS011;36654;45.042;38.994;2022-08-19T01:48:07;13.18;;;9.63;;
50683;SDS011;36654;45.042;38.994;2022-08-19T01:50:34;14.82;;;9.77;;
50683;SDS011;36654;45.042;38.994;2022-08-19T01:53:03;15.15;;;9.98;;
50683;SDS011;36654;45.042;38.994;2022-08-19T01:55:31;12.88;;;9.80;;
50683;SDS011;36654;45.042;38.994;2022-08-19T01:57:58;13.45;;;10.02;;
50683;SDS011;36654;45.042;38.994;2022-08-19T02:00:27;14.65;;;10.63;;
50683;SDS011;36654;45.042;38.994;2022-08-19T02:02:56;15.63;;;10.00;;
50683;SDS011;36654;45.042;38.994;2022-08-19T02:05:22;13.80;;;10.10;;
50683;SDS011;36654;45.042;38.994;2022-08-19T02:07:48;15.13;;;9.93;;
50683;SDS011;36654;45.042;38.994;2022-08-19T02:10:16;16.35;;;10.27;;
50683;SDS011;36654;45.042;38.994;2022-08-19T02:12:44;16.73;;;10.63;;
50683;SDS011;36654;45.042;38.994;2022-08-19T02:15:10;15.73;;;10.07;;
50683;SDS011;36654;45.042;38.994;2022-08-19T02:17:37;16.90;;;11.52;;
50683;SDS011;36654;45.042;38.994;2022-08-19T02:20:04;15.85;;;10.65;;
50683;SDS011;36654;45.042;38.994;2022-08-19T02:22:31;14.82;;;10.25;;
50683;SDS011;36654;45.042;38.994;2022-08-19T02:24:57;13.48;;;9.50;;
50683;SDS011;36654;45.042;38.994;2022-08-19T02:27:23;14.05;;;10.32;;
50683;SDS011;36654;45.042;38.994;2022-08-19T02:29:49;16.38;;;10.68;;
50683;SDS011;36654;45.042;38.994;2022-08-19T02:32:16;14.73;;;9.93;;
50683;SDS011;36654;45.042;38.994;2022-08-19T02:34:44;13.57;;;9.48;;
50683;SDS011;36654;45.042;38.994;2022-08-19T02:37:10;15.13;;;9.30;;
50683;SDS011;36654;45.042;38.994;2022-08-19T02:39:56;14.18;;;8.77;;
50683;SDS011;36654;45.042;38.994;2022-08-19T02:42:22;14.30;;;8.23;;
50683;SDS011;36654;45.042;38.994;2022-08-19T02:44:48;11.07;;;7.80;;
50683;SDS011;36654;45.042;38.994;2022-08-19T02:47:14;11.77;;;7.63;;
50683;SDS011;36654;45.042;38.994;2022-08-19T02:49:40;13.50;;;7.32;;
50683;SDS011;36654;45.042;38.994;2022-08-19T02:52:06;12.52;;;7.47;;
50683;SDS011;36654;45.042;38.994;2022-08-19T02:54:32;11.60;;;7.43;;
50683;SDS011;36654;45.042;38.994;2022-08-19T02:56:58;13.95;;;8.05;;
50683;SDS011;36654;45.042;38.994;2022-08-19T02:59:24;11.65;;;7.13;;
50683;SDS011;36654;45.042;38.994;2022-08-19T03:01:50;12.52;;;7.05;;
50683;SDS011;36654;45.042;38.994;2022-08-19T03:04:16;10.90;;;7.18;;
50683;SDS011;36654;45.042;38.994;2022-08-19T03:06:43;12.90;;;7.63;;
50683;SDS011;36654;45.042;38.994;2022-08-19T03:09:10;22.60;;;13.73;;
50683;SDS011;36654;45.042;38.994;2022-08-19T03:11:37;20.25;;;11.45;;
50683;SDS011;36654;45.042;38.994;2022-08-19T03:14:03;14.40;;;7.22;;
50683;SDS011;36654;45.042;38.994;2022-08-19T03:16:33;12.98;;;7.47;;
50683;SDS011;36654;45.042;38.994;2022-08-19T03:19:04;10.88;;;7.13;;
50683;SDS011;36654;45.042;38.994;2022-08-19T03:21:31;15.38;;;7.60;;
50683;SDS011;36654;45.042;38.994;2022-08-19T03:24:00;11.27;;;6.50;;
50683;SDS011;36654;45.042;38.994;2022-08-19T03:26:28;13.07;;;6.97;;
50683;SDS011;36654;45.042;38.994;2022-08-19T03:28:54;14.68;;;6.75;;
50683;SDS011;36654;45.042;38.994;2022-08-19T03:31:21;11.55;;;7.43;;
50683;SDS011;36654;45.042;38.994;2022-08-19T03:33:49;12.57;;;6.80;;
50683;SDS011;36654;45.042;38.994;2022-08-19T03:36:18;10.63;;;6.82;;
50683;SDS011;36654;45.042;38.994;2022-08-19T03:38:52;12.93;;;7.35;;
50683;SDS011;36654;45.042;38.994;2022-08-19T03:41:21;12.48;;;7.03;;
50683;SDS011;36654;45.042;38.994;2022-08-19T03:43:58;11.32;;;6.32;;
50683;SDS011;36654;45.042;38.994;2022-08-19T03:46:25;12.20;;;6.10;;
50683;SDS011;36654;45.042;38.994;2022-08-19T03:48:55;10.88;;;6.25;;
50683;SDS011;36654;45.042;38.994;2022-08-19T03:51:27;12.85;;;6.22;;
50683;SDS011;36654;45.042;38.994;2022-08-19T03:54:00;12.70;;;6.85;;
50683;SDS011;36654;45.042;38.994;2022-08-19T03:56:28;12.23;;;6.30;;
50683;SDS011;36654;45.042;38.994;2022-08-19T03:58:55;9.77;;;5.72;;
50683;SDS011;36654;45.042;38.994;2022-08-19T04:01:24;13.68;;;7.03;;
50683;SDS011;36654;45.042;38.994;2022-08-19T04:03:51;13.55;;;6.05;;
50683;SDS011;36654;45.042;38.994;2022-08-19T04:06:22;11.85;;;6.25;;
50683;SDS011;36654;45.042;38.994;2022-08-19T04:08:51;10.77;;;6.05;;
50683;SDS011;36654;45.042;38.994;2022-08-19T04:11:21;9.95;;;6.03;;
50683;SDS011;36654;45.042;38.994;2022-08-19T04:13:48;9.95;;;6.05;;
50683;SDS011;36654;45.042;38.994;2022-08-19T04:16:16;12.80;;;6.00;;
50683;SDS011;36654;45.042;38.994;2022-08-19T04:18:45;11.65;;;5.45;;
50683;SDS011;36654;45.042;38.994;2022-08-19T04:21:15;8.68;;;4.82;;
50683;SDS011;36654;45.042;38.994;2022-08-19T04:23:49;10.40;;;5.90;;
50683;SDS011;36654;45.042;38.994;2022-08-19T04:26:16;12.05;;;5.55;;
50683;SDS011;36654;45.042;38.994;2022-08-19T04:28:44;10.75;;;5.78;;
50683;SDS011;36654;45.042;38.994;2022-08-19T04:31:14;10.40;;;5.72;;
50683;SDS011;36654;45.042;38.994;2022-08-19T04:33:41;10.80;;;5.38;;
50683;SDS011;36654;45.042;38.994;2022-08-19T04:36:07;8.65;;;5.50;;
50683;SDS011;36654;45.042;38.994;2022-08-19T04:38:41;9.20;;;5.53;;
50683;SDS011;36654;45.042;38.994;2022-08-19T04:41:06;10.82;;;5.80;;
50683;SDS011;36654;45.042;38.994;2022-08-19T04:43:50;9.93;;;5.20;;
50683;SDS011;36654;45.042;38.994;2022-08-19T04:46:16;8.45;;;5.00;;
50683;SDS011;36654;45.042;38.994;2022-08-19T04:48:42;10.35;;;5.25;;
50683;SDS011;36654;45.042;38.994;2022-08-19T04:51:09;12.10;;;5.13;;
50683;SDS011;36654;45.042;38.994;2022-08-19T04:53:38;10.10;;;5.13;;
50683;SDS011;36654;45.042;38.994;2022-08-19T04:56:14;8.00;;;5.20;;
50683;SDS011;36654;45.042;38.994;2022-08-19T04:58:42;8.48;;;5.38;;
50683;SDS011;36654;45.042;38.994;2022-08-19T05:01:13;9.43;;;5.78;;
50683;SDS011;36654;45.042;38.994;2022-08-19T05:03:42;12.07;;;5.40;;
50683;SDS011;36654;45.042;38.994;2022-08-19T05:06:12;9.98;;;5.38;;
50683;SDS011;36654;45.042;38.994;2022-08-19T05:08:40;10.18;;;5.00;;
50683;SDS011;36654;45.042;38.994;2022-08-19T05:11:16;9.20;;;5.45;;
50683;SDS011;36654;45.042;38.994;2022-08-19T05:13:44;11.60;;;5.97;;
50683;SDS011;36654;45.042;38.994;2022-08-19T05:16:11;8.50;;;5.00;;
50683;SDS011;36654;45.042;38.994;2022-08-19T05:18:38;8.43;;;5.80;;
50683;SDS011;36654;45.042;38.994;2022-08-19T05:21:23;8.95;;;5.47;;
50683;SDS011;36654;45.042;38.994;2022-08-19T05:24:08;9.43;;;5.30;;
50683;SDS011;36654;45.042;38.994;2022-08-19T05:26:37;11.45;;;6.90;;
50683;SDS011;36654;45.042;38.994;2022-08-19T05:29:05;9.05;;;5.07;;
50683;SDS011;36654;45.042;38.994;2022-08-19T05:31:35;12.35;;;7.35;;
50683;SDS011;36654;45.042;38.994;2022-08-19T05:34:02;28.27;;;21.25;;
50683;SDS011;36654;45.042;38.994;2022-08-19T05:36:29;9.52;;;4.70;;
50683;SDS011;36654;45.042;38.994;2022-08-19T05:39:01;11.30;;;6.68;;
50683;SDS011;36654;45.042;38.994;2022-08-19T05:41:28;11.40;;;6.03;;
50683;SDS011;36654;45.042;38.994;2022-08-19T05:43:56;9.80;;;5.15;;
50683;SDS011;36654;45.042;38.994;2022-08-19T05:46:22;9.48;;;5.07;;
50683;SDS011;36654;45.042;38.994;2022-08-19T05:48:49;9.60;;;4.95;;
50683;SDS011;36654;45.042;38.994;2022-08-19T05:51:15;10.52;;;4.80;;
50683;SDS011;36654;45.042;38.994;2022-08-19T05:53:41;12.80;;;5.03;;
50683;SDS011;36654;45.042;38.994;2022-08-19T05:56:13;10.95;;;4.75;;
50683;SDS011;36654;45.042;38.994;2022-08-19T05:58:41;9.57;;;4.07;;
50683;SDS011;36654;45.042;38.994;2022-08-19T06:01:12;8.68;;;4.15;;
50683;SDS011;36654;45.042;38.994;2022-08-19T06:03:42;9.70;;;5.03;;
50683;SDS011;36654;45.042;38.994;2022-08-19T06:06:09;8.00;;;4.43;;
50683;SDS011;36654;45.042;38.994;2022-08-19T06:08:37;9.68;;;4.57;;
50683;SDS011;36654;45.042;38.994;2022-08-19T06:11:17;9.55;;;5.05;;
50683;SDS011;36654;45.042;38.994;2022-08-19T06:13:47;9.32;;;5.05;;
50683;SDS011;36654;45.042;38.994;2022-08-19T06:16:16;13.45;;;7.78;;
50683;SDS011;36654;45.042;38.994;2022-08-19T06:18:47;24.50;;;18.63;;
50683;SDS011;36654;45.042;38.994;2022-08-19T06:21:20;15.90;;;9.02;;
50683;SDS011;36654;45.042;38.994;2022-08-19T06:23:47;8.25;;;5.05;;
50683;SDS011;36654;45.042;38.994;2022-08-19T06:26:14;9.43;;;5.00;;
50683;SDS011;36654;45.042;38.994;2022-08-19T06:28:41;9.38;;;4.35;;
50683;SDS011;36654;45.042;38.994;2022-08-19T06:31:10;10.80;;;4.60;;
50683;SDS011;36654;45.042;38.994;2022-08-19T06:33:38;11.38;;;5.05;;
50683;SDS011;36654;45.042;38.994;2022-08-19T06:36:04;10.43;;;5.00;;
50683;SDS011;36654;45.042;38.994;2022-08-19T06:38:29;17.40;;;11.25;;
50683;SDS011;36654;45.042;38.994;2022-08-19T06:41:02;8.70;;;4.03;;
50683;SDS011;36654;45.042;38.994;2022-08-19T06:43:29;8.35;;;4.88;;
50683;SDS011;36654;45.042;38.994;2022-08-19T06:45:54;10.80;;;4.45;;
50683;SDS011;36654;45.042;38.994;2022-08-19T06:48:20;8.90;;;4.90;;
50683;SDS011;36654;45.042;38.994;2022-08-19T06:50:46;9.73;;;4.82;;
50683;SDS011;36654;45.042;38.994;2022-08-19T06:53:14;10.18;;;4.97;;
50683;SDS011;36654;45.042;38.994;2022-08-19T06:55:40;11.05;;;4.75;;
50683;SDS011;36654;45.042;38.994;2022-08-19T06:58:06;8.52;;;4.10;;
50683;SDS011;36654;45.042;38.994;2022-08-19T07:00:31;10.25;;;4.78;;
50683;SDS011;36654;45.042;38.994;2022-08-19T07:02:58;10.65;;;4.60;;
50683;SDS011;36654;45.042;38.994;2022-08-19T07:05:24;14.27;;;5.68;;
50683;SDS011;36654;45.042;38.994;2022-08-19T07:07:50;9.30;;;5.07;;
50683;SDS011;36654;45.042;38.994;2022-08-19T07:10:15;9.90;;;4.82;;
50683;SDS011;36654;45.042;38.994;2022-08-19T07:12:41;10.02;;;5.05;;
50683;SDS011;36654;45.042;38.994;2022-08-19T07:15:07;10.73;;;5.03;;
50683;SDS011;36654;45.042;38.994;2022-08-19T07:17:36;12.05;;;5.40;;
50683;SDS011;36654;45.042;38.994;2022-08-19T07:20:04;11.23;;;5.43;;
50683;SDS011;36654;45.042;38.994;2022-08-19T07:22:35;11.50;;;6.00;;
50683;SDS011;36654;45.042;38.994;2022-08-19T07:25:01;12.68;;;6.07;;
50683;SDS011;36654;45.042;38.994;2022-08-19T07:27:28;11.93;;;4.68;;
50683;SDS011;36654;45.042;38.994;2022-08-19T07:29:54;13.18;;;5.20;;
50683;SDS011;36654;45.042;38.994;2022-08-19T07:32:20;13.82;;;5.65;;
50683;SDS011;36654;45.042;38.994;2022-08-19T07:34:46;12.60;;;5.18;;
50683;SDS011;36654;45.042;38.994;2022-08-19T07:37:11;8.70;;;4.20;;
50683;SDS011;36654;45.042;38.994;2022-08-19T07:39:38;10.55;;;4.63;;
50683;SDS011;36654;45.042;38.994;2022-08-19T07:42:05;10.77;;;4.60;;
50683;SDS011;36654;45.042;38.994;2022-08-19T07:44:33;10.27;;;4.60;;
50683;SDS011;36654;45.042;38.994;2022-08-19T07:47:00;10.07;;;4.28;;
50683;SDS011;36654;45.042;38.994;2022-08-19T07:49:27;9.90;;;4.63;;
50683;SDS011;36654;45.042;38.994;2022-08-19T07:51:54;13.18;;;4.80;;
50683;SDS011;36654;45.042;38.994;2022-08-19T07:54:23;10.65;;;5.53;;
50683;SDS011;36654;45.042;38.994;2022-08-19T07:56:50;12.85;;;4.70;;
50683;SDS011;36654;45.042;38.994;2022-08-19T07:59:16;15.50;;;4.88;;
50683;SDS011;36654;45.042;38.994;2022-08-19T08:01:43;9.48;;;5.13;;
50683;SDS011;36654;45.042;38.994;2022-08-19T08:04:09;10.27;;;4.93;;
50683;SDS011;36654;45.042;38.994;2022-08-19T08:06:54;9.75;;;4.57;;
50683;SDS011;36654;45.042;38.994;2022-08-19T08:12:07;9.18;;;4.38;;
50683;SDS011;36654;45.042;38.994;2022-08-19T08:14:40;8.95;;;4.93;;
50683;SDS011;36654;45.042;38.994;2022-08-19T08:17:14;9.23;;;4.22;;
50683;SDS011;36654;45.042;38.994;2022-08-19T08:19:42;8.75;;;4.32;;
50683;SDS011;36654;45.042;38.994;2022-08-19T08:22:09;9.27;;;5.00;;
50683;SDS011;36654;45.042;38.994;2022-08-19T08:24:56;9.43;;;4.75;;
50683;SDS011;36654;45.042;38.994;2022-08-19T08:27:23;8.27;;;4.47;;
50683;SDS011;36654;45.042;38.994;2022-08-19T08:29:49;10.07;;;4.78;;
50683;SDS011;36654;45.042;38.994;2022-08-19T08:32:15;10.40;;;4.97;;
50683;SDS011;36654;45.042;38.994;2022-08-19T08:34:41;9.60;;;4.78;;
50683;SDS011;36654;45.042;38.994;2022-08-19T08:37:07;9.48;;;5.25;;
50683;SDS011;36654;45.042;38.994;2022-08-19T08:39:33;10.50;;;5.07;;
50683;SDS011;36654;45.042;38.994;2022-08-19T08:44:57;12.73;;;5.88;;
50683;SDS011;36654;45.042;38.994;2022-08-19T08:47:25;10.57;;;6.03;;
50683;SDS011;36654;45.042;38.994;2022-08-19T08:50:58;10.73;;;5.63;;
50683;SDS011;36654;45.042;38.994;2022-08-19T08:53:05;14.02;;;6.60;;
50683;SDS011;36654;45.042;38.994;2022-08-19T08:55:33;11.05;;;6.50;;
50683;SDS011;36654;45.042;38.994;2022-08-19T08:58:03;11.88;;;6.28;;
50683;SDS011;36654;45.042;38.994;2022-08-19T09:00:33;12.05;;;6.22;;
50683;SDS011;36654;45.042;38.994;2022-08-19T09:03:03;12.00;;;6.07;;
50683;SDS011;36654;45.042;38.994;2022-08-19T09:17:03;11.52;;;5.40;;
50683;SDS011;36654;45.042;38.994;2022-08-19T09:19:33;11.77;;;5.07;;
50683;SDS011;36654;45.042;38.994;2022-08-19T09:22:00;10.75;;;5.03;;
50683;SDS011;36654;45.042;38.994;2022-08-19T09:24:26;8.50;;;4.90;;
50683;SDS011;36654;45.042;38.994;2022-08-19T09:26:52;12.10;;;4.65;;
50683;SDS011;36654;45.042;38.994;2022-08-19T09:29:18;8.15;;;4.93;;
50683;SDS011;36654;45.042;38.994;2022-08-19T09:31:45;10.25;;;5.55;;
50683;SDS011;36654;45.042;38.994;2022-08-19T09:34:10;11.60;;;5.10;;
50683;SDS011;36654;45.042;38.994;2022-08-19T09:36:36;9.98;;;4.90;;
50683;SDS011;36654;45.042;38.994;2022-08-19T09:39:04;14.02;;;4.82;;
50683;SDS011;36654;45.042;38.994;2022-08-19T09:41:31;9.32;;;4.50;;
50683;SDS011;36654;45.042;38.994;2022-08-19T09:43:57;12.25;;;5.00;;
50683;SDS011;36654;45.042;38.994;2022-08-19T09:46:24;10.32;;;4.80;;
50683;SDS011;36654;45.042;38.994;2022-08-19T09:48:53;11.50;;;5.32;;
50683;SDS011;36654;45.042;38.994;2022-08-19T09:51:23;12.10;;;5.07;;
50683;SDS011;36654;45.042;38.994;2022-08-19T09:53:51;9.48;;;4.75;;
50683;SDS011;36654;45.042;38.994;2022-08-19T09:56:22;11.52;;;5.30;;
50683;SDS011;36654;45.042;38.994;2022-08-19T09:58:48;9.68;;;5.53;;
50683;SDS011;36654;45.042;38.994;2022-08-19T10:01:21;8.55;;;4.95;;
50683;SDS011;36654;45.042;38.994;2022-08-19T10:03:50;11.88;;;4.90;;
50683;SDS011;36654;45.042;38.994;2022-08-19T10:06:18;14.30;;;7.05;;
50683;SDS011;36654;45.042;38.994;2022-08-19T10:08:45;11.80;;;6.72;;
50683;SDS011;36654;45.042;38.994;2022-08-19T10:11:11;10.02;;;5.10;;
50683;SDS011;36654;45.042;38.994;2022-08-19T10:13:39;10.02;;;4.90;;
50683;SDS011;36654;45.042;38.994;2022-08-19T10:16:09;8.88;;;5.07;;
50683;SDS011;36654;45.042;38.994;2022-08-19T10:18:38;8.38;;;4.90;;
50683;SDS011;36654;45.042;38.994;2022-08-19T10:21:15;9.13;;;5.15;;
50683;SDS011;36654;45.042;38.994;2022-08-19T10:23:44;10.90;;;5.47;;
50683;SDS011;36654;45.042;38.994;2022-08-19T10:26:16;10.52;;;5.25;;
50683;SDS011;36654;45.042;38.994;2022-08-19T10:28:44;12.43;;;5.18;;
50683;SDS011;36654;45.042;38.994;2022-08-19T10:31:15;10.93;;;5.85;;
50683;SDS011;36654;45.042;38.994;2022-08-19T10:33:44;8.70;;;4.93;;
50683;SDS011;36654;45.042;38.994;2022-08-19T10:36:14;9.05;;;5.40;;
50683;SDS011;36654;45.042;38.994;2022-08-19T10:38:43;9.57;;;5.50;;
50683;SDS011;36654;45.042;38.994;2022-08-19T10:41:12;8.93;;;5.57;;
50683;SDS011;36654;45.042;38.994;2022-08-19T10:43:40;9.73;;;5.63;;
50683;SDS011;36654;45.042;38.994;2022-08-19T10:46:07;12.38;;;5.70;;
50683;SDS011;36654;45.042;38.994;2022-08-19T10:48:34;13.15;;;5.68;;
50683;SDS011;36654;45.042;38.994;2022-08-19T10:51:01;13.90;;;6.07;;
50683;SDS011;36654;45.042;38.994;2022-08-19T10:53:46;12.63;;;6.10;;
50683;SDS011;36654;45.042;38.994;2022-08-19T10:56:11;13.45;;;5.45;;
50683;SDS011;36654;45.042;38.994;2022-08-19T10:58:56;11.85;;;5.35;;
50683;SDS011;36654;45.042;38.994;2022-08-19T11:01:23;10.43;;;5.32;;
50683;SDS011;36654;45.042;38.994;2022-08-19T11:03:50;10.15;;;4.97;;
50683;SDS011;36654;45.042;38.994;2022-08-19T11:06:15;9.55;;;4.32;;
50683;SDS011;36654;45.042;38.994;2022-08-19T11:08:42;10.68;;;4.97;;
50683;SDS011;36654;45.042;38.994;2022-08-19T11:11:10;11.35;;;5.30;;
50683;SDS011;36654;45.042;38.994;2022-08-19T11:13:37;12.82;;;4.80;;
50683;SDS011;36654;45.042;38.994;2022-08-19T11:16:10;11.63;;;4.65;;
50683;SDS011;36654;45.042;38.994;2022-08-19T11:18:37;9.02;;;4.50;;
50683;SDS011;36654;45.042;38.994;2022-08-19T11:21:08;9.52;;;4.28;;
50683;SDS011;36654;45.042;38.994;2022-08-19T11:23:39;12.32;;;4.63;;
50683;SDS011;36654;45.042;38.994;2022-08-19T11:26:06;14.73;;;4.80;;
50683;SDS011;36654;45.042;38.994;2022-08-19T11:28:32;12.43;;;4.53;;
50683;SDS011;36654;45.042;38.994;2022-08-19T11:30:57;11.90;;;4.75;;
50683;SDS011;36654;45.042;38.994;2022-08-19T11:33:23;13.32;;;3.70;;
50683;SDS011;36654;45.042;38.994;2022-08-19T11:35:51;11.88;;;4.43;;
50683;SDS011;36654;45.042;38.994;2022-08-19T11:38:18;11.60;;;4.28;;
50683;SDS011;36654;45.042;38.994;2022-08-19T11:40:43;9.10;;;4.03;;
50683;SDS011;36654;45.042;38.994;2022-08-19T11:43:09;11.27;;;3.58;;
50683;SDS011;36654;45.042;38.994;2022-08-19T11:45:34;15.98;;;4.18;;
50683;SDS011;36654;45.042;38.994;2022-08-19T11:48:01;9.55;;;4.38;;
50683;SDS011;36654;45.042;38.994;2022-08-19T11:50:27;13.00;;;4.82;;
50683;SDS011;36654;45.042;38.994;2022-08-19T11:52:53;9.80;;;3.95;;
50683;SDS011;36654;45.042;38.994;2022-08-19T11:55:20;10.27;;;4.10;;
50683;SDS011;36654;45.042;38.994;2022-08-19T11:57:46;10.88;;;4.20;;
50683;SDS011;36654;45.042;38.994;2022-08-19T12:00:12;9.73;;;3.60;;
50683;SDS011;36654;45.042;38.994;2022-08-19T12:02:39;10.55;;;4.00;;
50683;SDS011;36654;45.042;38.994;2022-08-19T12:05:05;10.02;;;3.88;;
50683;SDS011;36654;45.042;38.994;2022-08-19T12:07:31;8.60;;;3.92;;
50683;SDS011;36654;45.042;38.994;2022-08-19T12:09:59;10.88;;;4.30;;
50683;SDS011;36654;45.042;38.994;2022-08-19T12:12:25;9.88;;;4.30;;
50683;SDS011;36654;45.042;38.994;2022-08-19T12:14:52;9.07;;;3.95;;
50683;SDS011;36654;45.042;38.994;2022-08-19T12:17:27;10.30;;;4.15;;
50683;SDS011;36654;45.042;38.994;2022-08-19T12:19:54;9.18;;;3.60;;
50683;SDS011;36654;45.042;38.994;2022-08-19T12:22:20;9.35;;;4.05;;
50683;SDS011;36654;45.042;38.994;2022-08-19T12:24:46;10.32;;;4.10;;
50683;SDS011;36654;45.042;38.994;2022-08-19T12:27:15;11.05;;;4.43;;
50683;SDS011;36654;45.042;38.994;2022-08-19T12:29:41;10.13;;;4.35;;
50683;SDS011;36654;45.042;38.994;2022-08-19T12:32:07;13.32;;;4.38;;
50683;SDS011;36654;45.042;38.994;2022-08-19T12:34:34;11.23;;;4.25;;
50683;SDS011;36654;45.042;38.994;2022-08-19T12:37:02;10.13;;;4.40;;
50683;SDS011;36654;45.042;38.994;2022-08-19T12:39:29;13.25;;;4.32;;
50683;SDS011;36654;45.042;38.994;2022-08-19T12:41:56;7.00;;;4.00;;
50683;SDS011;36654;45.042;38.994;2022-08-19T12:44:23;12.18;;;4.13;;
50683;SDS011;36654;45.042;38.994;2022-08-19T12:46:48;9.20;;;4.18;;
50683;SDS011;36654;45.042;38.994;2022-08-19T12:49:14;9.07;;;4.20;;
50683;SDS011;36654;45.042;38.994;2022-08-19T12:51:40;12.68;;;4.90;;
50683;SDS011;36654;45.042;38.994;2022-08-19T12:54:06;11.15;;;4.20;;
50683;SDS011;36654;45.042;38.994;2022-08-19T12:56:32;11.73;;;4.18;;
50683;SDS011;36654;45.042;38.994;2022-08-19T12:59:00;10.55;;;3.88;;
50683;SDS011;36654;45.042;38.994;2022-08-19T13:01:28;11.77;;;4.65;;
50683;SDS011;36654;45.042;38.994;2022-08-19T13:03:57;7.32;;;4.30;;
50683;SDS011;36654;45.042;38.994;2022-08-19T13:06:24;11.80;;;4.38;;
50683;SDS011;36654;45.042;38.994;2022-08-19T13:08:50;10.98;;;4.40;;
50683;SDS011;36654;45.042;38.994;2022-08-19T13:11:17;13.10;;;4.60;;
50683;SDS011;36654;45.042;38.994;2022-08-19T13:13:46;12.88;;;4.45;;
50683;SDS011;36654;45.042;38.994;2022-08-19T13:16:13;10.85;;;4.43;;
50683;SDS011;36654;45.042;38.994;2022-08-19T13:18:40;16.63;;;4.65;;
50683;SDS011;36654;45.042;38.994;2022-08-19T13:21:09;10.65;;;4.20;;
50683;SDS011;36654;45.042;38.994;2022-08-19T13:23:38;13.63;;;4.13;;
50683;SDS011;36654;45.042;38.994;2022-08-19T13:26:06;10.80;;;4.50;;
50683;SDS011;36654;45.042;38.994;2022-08-19T13:28:33;12.07;;;4.78;;
50683;SDS011;36654;45.042;38.994;2022-08-19T13:31:19;12.38;;;4.90;;
50683;SDS011;36654;45.042;38.994;2022-08-19T13:34:05;13.77;;;4.65;;
50683;SDS011;36654;45.042;38.994;2022-08-19T13:36:33;13.20;;;4.40;;
50683;SDS011;36654;45.042;38.994;2022-08-19T13:39:00;14.35;;;4.43;;
50683;SDS011;36654;45.042;38.994;2022-08-19T13:41:26;14.82;;;4.18;;
50683;SDS011;36654;45.042;38.994;2022-08-19T13:43:52;11.23;;;4.43;;
50683;SDS011;36654;45.042;38.994;2022-08-19T13:46:19;13.52;;;4.63;;
50683;SDS011;36654;45.042;38.994;2022-08-19T13:48:45;12.10;;;4.32;;
50683;SDS011;36654;45.042;38.994;2022-08-19T13:51:13;9.70;;;4.68;;
50683;SDS011;36654;45.042;38.994;2022-08-19T13:53:39;9.65;;;4.30;;
50683;SDS011;36654;45.042;38.994;2022-08-19T13:56:07;14.52;;;4.40;;
50683;SDS011;36654;45.042;38.994;2022-08-19T13:58:35;14.88;;;4.65;;
50683;SDS011;36654;45.042;38.994;2022-08-19T14:01:01;14.32;;;4.60;;
50683;SDS011;36654;45.042;38.994;2022-08-19T14:03:27;12.27;;;4.10;;
50683;SDS011;36654;45.042;38.994;2022-08-19T14:05:53;11.30;;;5.05;;
50683;SDS011;36654;45.042;38.994;2022-08-19T14:08:19;10.68;;;4.25;;
50683;SDS011;36654;45.042;38.994;2022-08-19T14:10:45;12.35;;;4.43;;
50683;SDS011;36654;45.042;38.994;2022-08-19T14:13:13;8.20;;;4.28;;
50683;SDS011;36654;45.042;38.994;2022-08-19T14:15:40;9.55;;;4.40;;
50683;SDS011;36654;45.042;38.994;2022-08-19T14:18:06;12.75;;;4.40;;
50683;SDS011;36654;45.042;38.994;2022-08-19T14:20:35;14.35;;;3.85;;
50683;SDS011;36654;45.042;38.994;2022-08-19T14:23:01;10.85;;;4.20;;
50683;SDS011;36654;45.042;38.994;2022-08-19T14:25:28;9.68;;;3.92;;
50683;SDS011;36654;45.042;38.994;2022-08-19T14:27:56;9.18;;;3.80;;
50683;SDS011;36654;45.042;38.994;2022-08-19T14:30:26;13.85;;;4.05;;
50683;SDS011;36654;45.042;38.994;2022-08-19T14:32:58;10.70;;;3.40;;
50683;SDS011;36654;45.042;38.994;2022-08-19T14:35:29;13.95;;;3.95;;
50683;SDS011;36654;45.042;38.994;2022-08-19T14:37:59;10.55;;;3.80;;
50683;SDS011;36654;45.042;38.994;2022-08-19T14:40:27;8.27;;;3.65;;
50683;SDS011;36654;45.042;38.994;2022-08-19T14:42:55;9.18;;;4.13;;
50683;SDS011;36654;45.042;38.994;2022-08-19T14:45:25;11.35;;;3.95;;
50683;SDS011;36654;45.042;38.994;2022-08-19T14:47:52;13.60;;;4.38;;